sensor_id;sensor_type;location;lat;lon;timestamp;temperature;humidity
69589;SHT31;56792;50.644;17.984;2023-07-13T00:01:11;20.88;81.41
69589;SHT31;56792;50.644;17.984;2023-07-13T00:03:40;20.87;81.41
69589;SHT31;56792;50.644;17.984;2023-07-13T00:06:09;20.86;81.44
69589;SHT31;56792;50.644;17.984;2023-07-13T00:08:37;20.85;81.53
69589;SHT31;56792;50.644;17.984;2023-07-13T00:11:05;20.84;81.68
69589;SHT31;56792;50.644;17.984;2023-07-13T00:13:33;20.83;81.90
69589;SHT31;56792;50.644;17.984;2023-07-13T00:16:04;20.81;81.85
69589;SHT31;56792;50.644;17.984;2023-07-13T00:18:33;20.79;81.80
69589;SHT31;56792;50.644;17.984;2023-07-13T00:21:02;20.77;81.89
69589;SHT31;56792;50.644;17.984;2023-07-13T00:23:31;20.75;81.95
69589;SHT31;56792;50.644;17.984;2023-07-13T00:26:00;20.76;81.98
69589;SHT31;56792;50.644;17.984;2023-07-13T00:28:28;20.75;82.00
69589;SHT31;56792;50.644;17.984;2023-07-13T00:30:57;20.74;82.18
69589;SHT31;56792;50.644;17.984;2023-07-13T00:33:26;20.74;82.28
69589;SHT31;56792;50.644;17.984;2023-07-13T00:35:56;20.73;82.16
69589;SHT31;56792;50.644;17.984;2023-07-13T00:38:25;20.71;82.45
69589;SHT31;56792;50.644;17.984;2023-07-13T00:40:53;20.68;82.59
69589;SHT31;56792;50.644;17.984;2023-07-13T00:43:23;20.67;82.50
69589;SHT31;56792;50.644;17.984;2023-07-13T00:48:54;20.60;82.89
69589;SHT31;56792;50.644;17.984;2023-07-13T00:51:28;20.57;82.92
69589;SHT31;56792;50.644;17.984;2023-07-13T00:54:04;20.56;82.82
69589;SHT31;56792;50.644;17.984;2023-07-13T00:56:38;20.58;82.86
69589;SHT31;56792;50.644;17.984;2023-07-13T00:59:09;20.58;82.88
69589;SHT31;56792;50.644;17.984;2023-07-13T01:01:42;20.58;82.94
69589;SHT31;56792;50.644;17.984;2023-07-13T01:04:10;20.58;82.91
69589;SHT31;56792;50.644;17.984;2023-07-13T01:06:39;20.55;82.97
69589;SHT31;56792;50.644;17.984;2023-07-13T01:09:10;20.53;83.03
69589;SHT31;56792;50.644;17.984;2023-07-13T01:11:39;20.51;83.14
69589;SHT31;56792;50.644;17.984;2023-07-13T01:14:07;20.48;83.17
69589;SHT31;56792;50.644;17.984;2023-07-13T01:16:36;20.47;83.22
69589;SHT31;56792;50.644;17.984;2023-07-13T01:19:10;20.47;83.17
69589;SHT31;56792;50.644;17.984;2023-07-13T01:21:51;20.46;83.07
69589;SHT31;56792;50.644;17.984;2023-07-13T01:24:20;20.45;83.14
69589;SHT31;56792;50.644;17.984;2023-07-13T01:26:49;20.46;83.10
69589;SHT31;56792;50.644;17.984;2023-07-13T01:29:17;20.44;83.09
69589;SHT31;56792;50.644;17.984;2023-07-13T01:31:46;20.40;83.17
69589;SHT31;56792;50.644;17.984;2023-07-13T01:34:14;20.34;83.14
69589;SHT31;56792;50.644;17.984;2023-07-13T01:36:43;20.31;83.11
69589;SHT31;56792;50.644;17.984;2023-07-13T01:39:11;20.31;82.97
69589;SHT31;56792;50.644;17.984;2023-07-13T01:41:40;20.30;82.85
69589;SHT31;56792;50.644;17.984;2023-07-13T01:44:08;20.32;82.76
69589;SHT31;56792;50.644;17.984;2023-07-13T01:46:37;20.32;82.80
69589;SHT31;56792;50.644;17.984;2023-07-13T01:49:05;20.30;82.71
69589;SHT31;56792;50.644;17.984;2023-07-13T01:51:33;20.30;82.60
69589;SHT31;56792;50.644;17.984;2023-07-13T01:54:01;20.27;82.53
69589;SHT31;56792;50.644;17.984;2023-07-13T01:56:30;20.24;82.67
69589;SHT31;56792;50.644;17.984;2023-07-13T01:58:58;20.20;82.76
69589;SHT31;56792;50.644;17.984;2023-07-13T02:01:28;20.18;82.80
69589;SHT31;56792;50.644;17.984;2023-07-13T02:03:56;20.15;82.61
69589;SHT31;56792;50.644;17.984;2023-07-13T02:06:25;20.12;82.59
69589;SHT31;56792;50.644;17.984;2023-07-13T02:08:53;20.11;82.62
69589;SHT31;56792;50.644;17.984;2023-07-13T02:11:22;20.08;82.73
69589;SHT31;56792;50.644;17.984;2023-07-13T02:13:51;20.06;82.79
69589;SHT31;56792;50.644;17.984;2023-07-13T02:16:19;20.06;82.80
69589;SHT31;56792;50.644;17.984;2023-07-13T02:18:47;20.03;82.70
69589;SHT31;56792;50.644;17.984;2023-07-13T02:21:18;20.00;82.82
69589;SHT31;56792;50.644;17.984;2023-07-13T02:23:46;19.98;82.89
69589;SHT31;56792;50.644;17.984;2023-07-13T02:26:15;19.95;82.94
69589;SHT31;56792;50.644;17.984;2023-07-13T02:28:44;19.92;83.01
69589;SHT31;56792;50.644;17.984;2023-07-13T02:31:13;19.89;83.02
69589;SHT31;56792;50.644;17.984;2023-07-13T02:33:42;19.86;82.96
69589;SHT31;56792;50.644;17.984;2023-07-13T02:36:10;19.83;82.88
69589;SHT31;56792;50.644;17.984;2023-07-13T02:38:44;19.81;82.80
69589;SHT31;56792;50.644;17.984;2023-07-13T02:41:12;19.77;82.80
69589;SHT31;56792;50.644;17.984;2023-07-13T02:43:40;19.76;82.75
69589;SHT31;56792;50.644;17.984;2023-07-13T02:46:09;19.75;82.72
69589;SHT31;56792;50.644;17.984;2023-07-13T02:48:38;19.72;82.80
69589;SHT31;56792;50.644;17.984;2023-07-13T02:51:06;19.69;83.03
69589;SHT31;56792;50.644;17.984;2023-07-13T02:53:35;19.66;83.14
69589;SHT31;56792;50.644;17.984;2023-07-13T02:56:04;19.63;83.12
69589;SHT31;56792;50.644;17.984;2023-07-13T02:58:33;19.61;83.20
69589;SHT31;56792;50.644;17.984;2023-07-13T03:01:06;19.58;83.15
69589;SHT31;56792;50.644;17.984;2023-07-13T03:03:36;19.56;83.19
69589;SHT31;56792;50.644;17.984;2023-07-13T03:06:05;19.52;83.27
69589;SHT31;56792;50.644;17.984;2023-07-13T03:08:40;19.50;83.22
69589;SHT31;56792;50.644;17.984;2023-07-13T03:11:09;19.48;83.21
69589;SHT31;56792;50.644;17.984;2023-07-13T03:13:41;19.46;83.23
69589;SHT31;56792;50.644;17.984;2023-07-13T03:16:10;19.42;83.35
69589;SHT31;56792;50.644;17.984;2023-07-13T03:18:42;19.40;83.42
69589;SHT31;56792;50.644;17.984;2023-07-13T03:21:12;19.39;83.47
69589;SHT31;56792;50.644;17.984;2023-07-13T03:23:40;19.36;83.50
69589;SHT31;56792;50.644;17.984;2023-07-13T03:26:10;19.35;83.58
69589;SHT31;56792;50.644;17.984;2023-07-13T03:28:41;19.34;83.54
69589;SHT31;56792;50.644;17.984;2023-07-13T03:31:14;19.33;83.35
69589;SHT31;56792;50.644;17.984;2023-07-13T03:33:46;19.32;83.42
69589;SHT31;56792;50.644;17.984;2023-07-13T03:36:17;19.28;83.54
69589;SHT31;56792;50.644;17.984;2023-07-13T03:38:48;19.30;83.55
69589;SHT31;56792;50.644;17.984;2023-07-13T03:41:21;19.30;83.59
69589;SHT31;56792;50.644;17.984;2023-07-13T03:43:52;19.30;83.74
69589;SHT31;56792;50.644;17.984;2023-07-13T03:46:21;19.31;83.85
69589;SHT31;56792;50.644;17.984;2023-07-13T03:48:49;19.31;83.86
69589;SHT31;56792;50.644;17.984;2023-07-13T03:51:17;19.32;83.89
69589;SHT31;56792;50.644;17.984;2023-07-13T03:53:46;19.33;83.86
69589;SHT31;56792;50.644;17.984;2023-07-13T03:56:15;19.31;83.93
69589;SHT31;56792;50.644;17.984;2023-07-13T03:58:46;19.30;83.97
69589;SHT31;56792;50.644;17.984;2023-07-13T04:01:18;19.31;84.05
69589;SHT31;56792;50.644;17.984;2023-07-13T04:03:49;19.30;84.23
69589;SHT31;56792;50.644;17.984;2023-07-13T04:06:22;19.31;84.27
69589;SHT31;56792;50.644;17.984;2023-07-13T04:08:55;19.35;84.50
69589;SHT31;56792;50.644;17.984;2023-07-13T04:11:26;19.41;84.69
69589;SHT31;56792;50.644;17.984;2023-07-13T04:13:57;19.45;84.76
69589;SHT31;56792;50.644;17.984;2023-07-13T04:16:26;19.48;84.72
69589;SHT31;56792;50.644;17.984;2023-07-13T04:18:55;19.49;84.74
69589;SHT31;56792;50.644;17.984;2023-07-13T04:21:25;19.49;84.84
69589;SHT31;56792;50.644;17.984;2023-07-13T04:23:55;19.48;84.89
69589;SHT31;56792;50.644;17.984;2023-07-13T04:26:24;19.48;84.99
69589;SHT31;56792;50.644;17.984;2023-07-13T04:28:52;19.51;84.93
69589;SHT31;56792;50.644;17.984;2023-07-13T04:31:20;19.55;84.98
69589;SHT31;56792;50.644;17.984;2023-07-13T04:33:49;19.59;85.11
69589;SHT31;56792;50.644;17.984;2023-07-13T04:36:17;19.60;85.01
69589;SHT31;56792;50.644;17.984;2023-07-13T04:38:45;19.61;84.94
69589;SHT31;56792;50.644;17.984;2023-07-13T04:41:14;19.64;84.86
69589;SHT31;56792;50.644;17.984;2023-07-13T04:43:43;19.65;84.81
69589;SHT31;56792;50.644;17.984;2023-07-13T04:46:12;19.69;84.86
69589;SHT31;56792;50.644;17.984;2023-07-13T04:48:43;19.73;84.99
69589;SHT31;56792;50.644;17.984;2023-07-13T04:51:11;19.79;85.13
69589;SHT31;56792;50.644;17.984;2023-07-13T04:53:39;19.86;85.12
69589;SHT31;56792;50.644;17.984;2023-07-13T04:56:08;19.92;85.04
69589;SHT31;56792;50.644;17.984;2023-07-13T04:58:36;19.97;84.84
69589;SHT31;56792;50.644;17.984;2023-07-13T05:01:06;20.01;84.79
69589;SHT31;56792;50.644;17.984;2023-07-13T05:03:35;20.06;84.81
69589;SHT31;56792;50.644;17.984;2023-07-13T05:06:04;20.13;84.79
69589;SHT31;56792;50.644;17.984;2023-07-13T05:08:35;20.19;84.66
69589;SHT31;56792;50.644;17.984;2023-07-13T05:11:04;20.25;84.53
69589;SHT31;56792;50.644;17.984;2023-07-13T05:13:33;20.30;84.32
69589;SHT31;56792;50.644;17.984;2023-07-13T05:16:02;20.33;84.30
69589;SHT31;56792;50.644;17.984;2023-07-13T05:18:33;20.38;84.22
69589;SHT31;56792;50.644;17.984;2023-07-13T05:21:03;20.42;84.10
69589;SHT31;56792;50.644;17.984;2023-07-13T05:23:34;20.48;83.95
69589;SHT31;56792;50.644;17.984;2023-07-13T05:26:03;20.52;83.77
69589;SHT31;56792;50.644;17.984;2023-07-13T05:28:32;20.58;83.72
69589;SHT31;56792;50.644;17.984;2023-07-13T05:31:00;20.62;83.47
69589;SHT31;56792;50.644;17.984;2023-07-13T05:33:28;20.66;83.53
69589;SHT31;56792;50.644;17.984;2023-07-13T05:35:57;20.71;83.43
69589;SHT31;56792;50.644;17.984;2023-07-13T05:38:26;20.76;83.21
69589;SHT31;56792;50.644;17.984;2023-07-13T05:40:55;20.80;83.27
69589;SHT31;56792;50.644;17.984;2023-07-13T05:43:24;20.85;83.32
69589;SHT31;56792;50.644;17.984;2023-07-13T05:45:53;20.90;83.23
69589;SHT31;56792;50.644;17.984;2023-07-13T05:48:23;20.93;83.10
69589;SHT31;56792;50.644;17.984;2023-07-13T05:50:51;20.97;83.15
69589;SHT31;56792;50.644;17.984;2023-07-13T05:53:19;21.00;83.15
69589;SHT31;56792;50.644;17.984;2023-07-13T05:55:47;21.04;83.14
69589;SHT31;56792;50.644;17.984;2023-07-13T05:58:16;21.07;83.06
69589;SHT31;56792;50.644;17.984;2023-07-13T06:00:46;21.10;82.88
69589;SHT31;56792;50.644;17.984;2023-07-13T06:03:15;21.15;82.89
69589;SHT31;56792;50.644;17.984;2023-07-13T06:05:43;21.20;82.86
69589;SHT31;56792;50.644;17.984;2023-07-13T06:08:11;21.25;82.78
69589;SHT31;56792;50.644;17.984;2023-07-13T06:10:39;21.32;82.84
69589;SHT31;56792;50.644;17.984;2023-07-13T06:13:09;21.38;82.74
69589;SHT31;56792;50.644;17.984;2023-07-13T06:15:37;21.43;82.52
69589;SHT31;56792;50.644;17.984;2023-07-13T06:18:05;21.47;82.32
69589;SHT31;56792;50.644;17.984;2023-07-13T06:20:34;21.48;82.16
69589;SHT31;56792;50.644;17.984;2023-07-13T06:23:02;21.49;82.16
69589;SHT31;56792;50.644;17.984;2023-07-13T06:25:30;21.49;82.04
69589;SHT31;56792;50.644;17.984;2023-07-13T06:27:58;21.46;82.06
69589;SHT31;56792;50.644;17.984;2023-07-13T06:30:27;21.48;82.08
69589;SHT31;56792;50.644;17.984;2023-07-13T06:32:55;21.49;81.91
69589;SHT31;56792;50.644;17.984;2023-07-13T06:35:23;21.48;81.42
69589;SHT31;56792;50.644;17.984;2023-07-13T06:37:51;21.46;80.88
69589;SHT31;56792;50.644;17.984;2023-07-13T06:40:20;21.45;80.70
69589;SHT31;56792;50.644;17.984;2023-07-13T06:42:48;21.42;80.42
69589;SHT31;56792;50.644;17.984;2023-07-13T06:45:16;21.41;80.02
69589;SHT31;56792;50.644;17.984;2023-07-13T06:47:44;21.37;79.21
69589;SHT31;56792;50.644;17.984;2023-07-13T06:50:13;21.28;78.51
69589;SHT31;56792;50.644;17.984;2023-07-13T06:52:41;21.20;77.78
69589;SHT31;56792;50.644;17.984;2023-07-13T06:55:09;21.07;76.63
69589;SHT31;56792;50.644;17.984;2023-07-13T06:57:37;20.98;76.58
69589;SHT31;56792;50.644;17.984;2023-07-13T07:00:07;20.89;76.12
69589;SHT31;56792;50.644;17.984;2023-07-13T07:02:37;20.78;76.15
69589;SHT31;56792;50.644;17.984;2023-07-13T07:05:06;20.70;76.16
69589;SHT31;56792;50.644;17.984;2023-07-13T07:07:34;20.60;76.28
69589;SHT31;56792;50.644;17.984;2023-07-13T07:10:03;20.53;76.40
69589;SHT31;56792;50.644;17.984;2023-07-13T07:12:34;20.47;76.40
69589;SHT31;56792;50.644;17.984;2023-07-13T07:15:02;20.38;76.70
69589;SHT31;56792;50.644;17.984;2023-07-13T07:17:32;20.29;76.77
69589;SHT31;56792;50.644;17.984;2023-07-13T07:20:01;20.25;77.20
69589;SHT31;56792;50.644;17.984;2023-07-13T07:22:30;20.22;77.08
69589;SHT31;56792;50.644;17.984;2023-07-13T07:24:58;20.18;77.13
69589;SHT31;56792;50.644;17.984;2023-07-13T07:27:27;20.14;77.66
69589;SHT31;56792;50.644;17.984;2023-07-13T07:29:55;20.15;77.76
69589;SHT31;56792;50.644;17.984;2023-07-13T07:32:24;20.13;77.77
69589;SHT31;56792;50.644;17.984;2023-07-13T07:34:52;20.10;77.73
69589;SHT31;56792;50.644;17.984;2023-07-13T07:37:20;20.05;77.51
69589;SHT31;56792;50.644;17.984;2023-07-13T07:39:49;19.97;77.61
69589;SHT31;56792;50.644;17.984;2023-07-13T07:42:17;19.97;77.85
69589;SHT31;56792;50.644;17.984;2023-07-13T07:44:45;19.96;78.09
69589;SHT31;56792;50.644;17.984;2023-07-13T07:47:14;19.93;78.01
69589;SHT31;56792;50.644;17.984;2023-07-13T07:49:42;19.91;78.16
69589;SHT31;56792;50.644;17.984;2023-07-13T07:52:10;19.89;78.20
69589;SHT31;56792;50.644;17.984;2023-07-13T07:54:39;19.86;78.48
69589;SHT31;56792;50.644;17.984;2023-07-13T07:57:07;19.83;78.66
69589;SHT31;56792;50.644;17.984;2023-07-13T07:59:36;19.83;78.93
69589;SHT31;56792;50.644;17.984;2023-07-13T08:02:06;19.84;79.00
69589;SHT31;56792;50.644;17.984;2023-07-13T08:04:36;19.82;79.11
69589;SHT31;56792;50.644;17.984;2023-07-13T08:07:04;19.79;79.26
69589;SHT31;56792;50.644;17.984;2023-07-13T08:09:33;19.79;79.25
69589;SHT31;56792;50.644;17.984;2023-07-13T08:12:02;19.76;79.27
69589;SHT31;56792;50.644;17.984;2023-07-13T08:14:32;19.71;79.28
69589;SHT31;56792;50.644;17.984;2023-07-13T08:17:01;19.67;79.45
69589;SHT31;56792;50.644;17.984;2023-07-13T08:19:29;19.65;79.75
69589;SHT31;56792;50.644;17.984;2023-07-13T08:21:58;19.63;79.82
69589;SHT31;56792;50.644;17.984;2023-07-13T08:24:26;19.64;80.12
69589;SHT31;56792;50.644;17.984;2023-07-13T08:26:54;19.61;80.10
69589;SHT31;56792;50.644;17.984;2023-07-13T08:29:22;19.59;80.22
69589;SHT31;56792;50.644;17.984;2023-07-13T08:31:51;19.58;80.24
69589;SHT31;56792;50.644;17.984;2023-07-13T08:34:20;19.55;80.22
69589;SHT31;56792;50.644;17.984;2023-07-13T08:36:48;19.51;80.09
69589;SHT31;56792;50.644;17.984;2023-07-13T08:39:16;19.46;80.30
69589;SHT31;56792;50.644;17.984;2023-07-13T08:41:45;19.42;80.16
69589;SHT31;56792;50.644;17.984;2023-07-13T08:44:21;19.38;80.16
69589;SHT31;56792;50.644;17.984;2023-07-13T08:47:01;19.35;80.25
69589;SHT31;56792;50.644;17.984;2023-07-13T08:49:31;19.35;80.43
69589;SHT31;56792;50.644;17.984;2023-07-13T08:52:02;19.32;80.55
69589;SHT31;56792;50.644;17.984;2023-07-13T08:54:40;19.33;80.73
69589;SHT31;56792;50.644;17.984;2023-07-13T08:57:15;19.31;80.83
69589;SHT31;56792;50.644;17.984;2023-07-13T08:59:49;19.29;80.83
69589;SHT31;56792;50.644;17.984;2023-07-13T09:02:20;19.27;81.11
69589;SHT31;56792;50.644;17.984;2023-07-13T09:04:56;19.23;81.00
69589;SHT31;56792;50.644;17.984;2023-07-13T09:07:38;19.20;80.83
69589;SHT31;56792;50.644;17.984;2023-07-13T09:10:31;19.20;81.15
69589;SHT31;56792;50.644;17.984;2023-07-13T09:13:16;19.20;81.44
69589;SHT31;56792;50.644;17.984;2023-07-13T09:15:55;19.23;81.56
69589;SHT31;56792;50.644;17.984;2023-07-13T09:18:27;19.23;81.65
69589;SHT31;56792;50.644;17.984;2023-07-13T09:21:02;19.24;81.80
69589;SHT31;56792;50.644;17.984;2023-07-13T09:23:36;19.26;82.03
69589;SHT31;56792;50.644;17.984;2023-07-13T09:26:06;19.27;82.05
69589;SHT31;56792;50.644;17.984;2023-07-13T09:28:42;19.27;81.95
69589;SHT31;56792;50.644;17.984;2023-07-13T09:31:15;19.27;81.83
69589;SHT31;56792;50.644;17.984;2023-07-13T09:33:49;19.27;81.78
69589;SHT31;56792;50.644;17.984;2023-07-13T09:36:19;19.31;81.80
69589;SHT31;56792;50.644;17.984;2023-07-13T09:38:52;19.33;81.67
69589;SHT31;56792;50.644;17.984;2023-07-13T09:41:32;19.34;81.45
69589;SHT31;56792;50.644;17.984;2023-07-13T09:44:14;19.35;81.42
69589;SHT31;56792;50.644;17.984;2023-07-13T09:46:57;19.38;81.37
69589;SHT31;56792;50.644;17.984;2023-07-13T09:49:25;19.39;81.09
69589;SHT31;56792;50.644;17.984;2023-07-13T09:51:59;19.45;81.38
69589;SHT31;56792;50.644;17.984;2023-07-13T09:54:32;19.51;81.78
69589;SHT31;56792;50.644;17.984;2023-07-13T09:57:03;19.58;81.87
69589;SHT31;56792;50.644;17.984;2023-07-13T09:59:41;19.63;81.53
69589;SHT31;56792;50.644;17.984;2023-07-13T10:02:23;19.65;80.99
69589;SHT31;56792;50.644;17.984;2023-07-13T10:04:58;19.70;80.66
69589;SHT31;56792;50.644;17.984;2023-07-13T10:07:29;19.75;80.46
69589;SHT31;56792;50.644;17.984;2023-07-13T10:09:59;19.80;80.63
69589;SHT31;56792;50.644;17.984;2023-07-13T10:12:29;19.86;80.61
69589;SHT31;56792;50.644;17.984;2023-07-13T10:15:06;19.89;80.56
69589;SHT31;56792;50.644;17.984;2023-07-13T10:17:43;19.94;80.91
69589;SHT31;56792;50.644;17.984;2023-07-13T10:20:12;19.97;80.79
69589;SHT31;56792;50.644;17.984;2023-07-13T10:22:44;20.02;80.74
69589;SHT31;56792;50.644;17.984;2023-07-13T10:25:21;20.05;80.50
69589;SHT31;56792;50.644;17.984;2023-07-13T10:27:53;20.05;80.34
69589;SHT31;56792;50.644;17.984;2023-07-13T10:30:32;20.06;80.37
69589;SHT31;56792;50.644;17.984;2023-07-13T10:33:08;20.05;80.47
69589;SHT31;56792;50.644;17.984;2023-07-13T10:35:40;20.04;80.51
69589;SHT31;56792;50.644;17.984;2023-07-13T10:38:13;20.04;80.52
69589;SHT31;56792;50.644;17.984;2023-07-13T10:41:00;20.10;80.79
69589;SHT31;56792;50.644;17.984;2023-07-13T10:43:33;20.17;80.54
69589;SHT31;56792;50.644;17.984;2023-07-13T10:46:06;20.24;80.52
69589;SHT31;56792;50.644;17.984;2023-07-13T10:48:37;20.25;80.16
69589;SHT31;56792;50.644;17.984;2023-07-13T10:51:09;20.23;80.06
69589;SHT31;56792;50.644;17.984;2023-07-13T10:53:43;20.22;80.15
69589;SHT31;56792;50.644;17.984;2023-07-13T10:56:22;20.26;80.04
69589;SHT31;56792;50.644;17.984;2023-07-13T10:59:02;20.27;80.11
69589;SHT31;56792;50.644;17.984;2023-07-13T11:01:45;20.35;80.12
69589;SHT31;56792;50.644;17.984;2023-07-13T11:04:21;20.43;80.11
69589;SHT31;56792;50.644;17.984;2023-07-13T11:06:53;20.51;80.10
69589;SHT31;56792;50.644;17.984;2023-07-13T11:09:37;20.67;80.38
69589;SHT31;56792;50.644;17.984;2023-07-13T11:12:25;20.85;80.17
69589;SHT31;56792;50.644;17.984;2023-07-13T11:15:26;20.97;79.19
69589;SHT31;56792;50.644;17.984;2023-07-13T11:18:11;21.17;78.97
69589;SHT31;56792;50.644;17.984;2023-07-13T11:20:50;21.21;78.60
69589;SHT31;56792;50.644;17.984;2023-07-13T11:23:38;21.33;78.83
69589;SHT31;56792;50.644;17.984;2023-07-13T11:29:12;21.81;78.09
69589;SHT31;56792;50.644;17.984;2023-07-13T11:34:52;21.95;76.85
69589;SHT31;56792;50.644;17.984;2023-07-13T11:37:21;21.99;76.79
69589;SHT31;56792;50.644;17.984;2023-07-13T11:39:55;22.02;76.50
69589;SHT31;56792;50.644;17.984;2023-07-13T11:42:29;22.13;76.15
69589;SHT31;56792;50.644;17.984;2023-07-13T11:44:58;22.41;76.76
69589;SHT31;56792;50.644;17.984;2023-07-13T11:47:26;22.69;75.94
69589;SHT31;56792;50.644;17.984;2023-07-13T11:49:58;22.83;74.96
69589;SHT31;56792;50.644;17.984;2023-07-13T11:52:29;22.95;74.73
69589;SHT31;56792;50.644;17.984;2023-07-13T11:55:03;23.02;74.38
69589;SHT31;56792;50.644;17.984;2023-07-13T11:57:44;23.04;73.95
69589;SHT31;56792;50.644;17.984;2023-07-13T12:00:19;23.08;73.92
69589;SHT31;56792;50.644;17.984;2023-07-13T12:02:53;23.13;73.53
69589;SHT31;56792;50.644;17.984;2023-07-13T12:05:26;23.31;72.78
69589;SHT31;56792;50.644;17.984;2023-07-13T12:07:56;23.41;72.87
69589;SHT31;56792;50.644;17.984;2023-07-13T12:10:25;23.60;72.67
69589;SHT31;56792;50.644;17.984;2023-07-13T12:12:58;23.84;72.51
69589;SHT31;56792;50.644;17.984;2023-07-13T12:15:32;24.07;70.98
69589;SHT31;56792;50.644;17.984;2023-07-13T12:18:10;24.27;70.69
69589;SHT31;56792;50.644;17.984;2023-07-13T12:20:41;24.42;69.08
69589;SHT31;56792;50.644;17.984;2023-07-13T12:23:14;24.56;69.86
69589;SHT31;56792;50.644;17.984;2023-07-13T12:25:52;24.67;70.04
69589;SHT31;56792;50.644;17.984;2023-07-13T12:28:22;24.74;68.97
69589;SHT31;56792;50.644;17.984;2023-07-13T12:30:59;24.82;69.72
69589;SHT31;56792;50.644;17.984;2023-07-13T12:33:30;24.99;69.39
69589;SHT31;56792;50.644;17.984;2023-07-13T12:36:00;25.16;67.94
69589;SHT31;56792;50.644;17.984;2023-07-13T12:38:32;25.33;67.60
69589;SHT31;56792;50.644;17.984;2023-07-13T12:41:00;25.35;65.88
69589;SHT31;56792;50.644;17.984;2023-07-13T12:43:30;25.35;66.74
69589;SHT31;56792;50.644;17.984;2023-07-13T12:46:05;25.42;66.61
69589;SHT31;56792;50.644;17.984;2023-07-13T12:48:47;25.49;66.29
69589;SHT31;56792;50.644;17.984;2023-07-13T12:51:49;25.58;66.61
69589;SHT31;56792;50.644;17.984;2023-07-13T12:54:22;25.68;65.54
69589;SHT31;56792;50.644;17.984;2023-07-13T12:56:50;25.76;65.10
69589;SHT31;56792;50.644;17.984;2023-07-13T12:59:23;25.82;64.73
69589;SHT31;56792;50.644;17.984;2023-07-13T13:01:59;25.88;64.50
69589;SHT31;56792;50.644;17.984;2023-07-13T13:04:28;26.03;65.58
69589;SHT31;56792;50.644;17.984;2023-07-13T13:07:03;26.22;64.94
69589;SHT31;56792;50.644;17.984;2023-07-13T13:09:36;26.29;63.64
69589;SHT31;56792;50.644;17.984;2023-07-13T13:12:05;26.40;64.31
69589;SHT31;56792;50.644;17.984;2023-07-13T13:14:36;26.58;64.39
69589;SHT31;56792;50.644;17.984;2023-07-13T13:17:07;26.72;62.04
69589;SHT31;56792;50.644;17.984;2023-07-13T13:19:49;26.83;62.97
69589;SHT31;56792;50.644;17.984;2023-07-13T13:22:19;26.91;61.99
69589;SHT31;56792;50.644;17.984;2023-07-13T13:24:47;26.93;60.02
69589;SHT31;56792;50.644;17.984;2023-07-13T13:27:16;26.90;60.65
69589;SHT31;56792;50.644;17.984;2023-07-13T13:29:47;26.98;59.58
69589;SHT31;56792;50.644;17.984;2023-07-13T13:32:17;27.05;60.10
69589;SHT31;56792;50.644;17.984;2023-07-13T13:34:45;27.15;59.85
69589;SHT31;56792;50.644;17.984;2023-07-13T13:37:19;27.27;60.57
69589;SHT31;56792;50.644;17.984;2023-07-13T13:39:51;27.42;60.18
69589;SHT31;56792;50.644;17.984;2023-07-13T13:42:21;27.55;59.35
69589;SHT31;56792;50.644;17.984;2023-07-13T13:44:50;27.61;58.56
69589;SHT31;56792;50.644;17.984;2023-07-13T13:47:29;27.73;58.42
69589;SHT31;56792;50.644;17.984;2023-07-13T13:50:00;27.86;58.58
69589;SHT31;56792;50.644;17.984;2023-07-13T13:52:36;27.99;58.21
69589;SHT31;56792;50.644;17.984;2023-07-13T13:55:10;28.07;57.30
69589;SHT31;56792;50.644;17.984;2023-07-13T18:03:04;24.66;53.19
69589;SHT31;56792;50.644;17.984;2023-07-13T18:05:40;24.57;54.54
69589;SHT31;56792;50.644;17.984;2023-07-13T18:08:17;24.47;55.13
69589;SHT31;56792;50.644;17.984;2023-07-13T18:10:50;24.35;55.89
69589;SHT31;56792;50.644;17.984;2023-07-13T18:13:20;24.24;56.26
69589;SHT31;56792;50.644;17.984;2023-07-13T18:15:50;24.15;56.53
69589;SHT31;56792;50.644;17.984;2023-07-13T18:18:19;24.03;57.06
69589;SHT31;56792;50.644;17.984;2023-07-13T18:20:48;23.91;57.85
69589;SHT31;56792;50.644;17.984;2023-07-13T18:23:17;23.80;58.42
69589;SHT31;56792;50.644;17.984;2023-07-13T18:25:48;23.68;58.51
69589;SHT31;56792;50.644;17.984;2023-07-13T18:28:18;23.57;58.36
69589;SHT31;56792;50.644;17.984;2023-07-13T18:30:48;23.45;58.27
69589;SHT31;56792;50.644;17.984;2023-07-13T18:33:22;23.36;58.00
69589;SHT31;56792;50.644;17.984;2023-07-13T18:35:55;23.26;58.12
69589;SHT31;56792;50.644;17.984;2023-07-13T19:18:47;21.75;66.76
69589;SHT31;56792;50.644;17.984;2023-07-13T19:21:26;21.69;66.73
69589;SHT31;56792;50.644;17.984;2023-07-13T19:24:05;21.59;67.16
69589;SHT31;56792;50.644;17.984;2023-07-13T19:26:45;21.51;67.65
69589;SHT31;56792;50.644;17.984;2023-07-13T19:29:19;21.44;68.16
69589;SHT31;56792;50.644;17.984;2023-07-13T19:31:53;21.39;68.65
69589;SHT31;56792;50.644;17.984;2023-07-13T19:34:25;21.33;69.26
69589;SHT31;56792;50.644;17.984;2023-07-13T19:36:58;21.30;69.51
69589;SHT31;56792;50.644;17.984;2023-07-13T19:39:39;21.27;69.78
69589;SHT31;56792;50.644;17.984;2023-07-13T19:42:13;21.24;70.13
69589;SHT31;56792;50.644;17.984;2023-07-13T19:44:48;21.20;70.37
69589;SHT31;56792;50.644;17.984;2023-07-13T19:47:22;21.14;70.42
69589;SHT31;56792;50.644;17.984;2023-07-13T19:49:53;21.08;70.73
69589;SHT31;56792;50.644;17.984;2023-07-13T19:52:26;21.03;70.41
69589;SHT31;56792;50.644;17.984;2023-07-13T19:54:57;21.00;70.31
69589;SHT31;56792;50.644;17.984;2023-07-13T19:57:36;20.97;70.13
69589;SHT31;56792;50.644;17.984;2023-07-13T20:00:09;20.94;70.07
69589;SHT31;56792;50.644;17.984;2023-07-13T20:02:47;20.93;70.41
69589;SHT31;56792;50.644;17.984;2023-07-13T20:05:20;20.91;70.42
69589;SHT31;56792;50.644;17.984;2023-07-13T20:07:55;20.87;70.42
69589;SHT31;56792;50.644;17.984;2023-07-13T20:10:28;20.84;70.46
69589;SHT31;56792;50.644;17.984;2023-07-13T20:13:00;20.78;70.20
69589;SHT31;56792;50.644;17.984;2023-07-13T20:15:39;20.74;69.76
69589;SHT31;56792;50.644;17.984;2023-07-13T20:18:13;20.70;69.64
69589;SHT31;56792;50.644;17.984;2023-07-13T20:20:46;20.68;69.54
69589;SHT31;56792;50.644;17.984;2023-07-13T20:23:18;20.64;69.78
69589;SHT31;56792;50.644;17.984;2023-07-13T20:25:52;20.60;70.00
69589;SHT31;56792;50.644;17.984;2023-07-13T20:28:24;20.56;70.26
69589;SHT31;56792;50.644;17.984;2023-07-13T20:30:55;20.49;70.75
69589;SHT31;56792;50.644;17.984;2023-07-13T20:33:27;20.45;70.89
69589;SHT31;56792;50.644;17.984;2023-07-13T20:36:00;20.40;71.03